sensor_id;sensor_type;location;lat;lon;timestamp;pressure;altitude;pressure_sealevel;temperature;humidity
7170;BME280;3626;42.656;23.312;2023-11-21T00:00:05;94419.44;;;3.20;100.00
7170;BME280;3626;42.656;23.312;2023-11-21T00:00:17;94414.34;;;3.20;100.00
7170;BME280;3626;42.656;23.312;2023-11-21T00:00:23;94420.25;;;3.20;100.00
7170;BME280;3626;42.656;23.312;2023-11-21T00:00:31;94415.97;;;3.21;100.00
7170;BME280;3626;42.656;23.312;2023-11-21T00:00:37;94415.97;;;3.21;100.00
7170;BME280;3626;42.656;23.312;2023-11-21T00:00:42;94417.56;;;3.22;100.00
7170;BME280;3626;42.656;23.312;2023-11-21T00:00:48;94419.22;;;3.23;100.00
7170;BME280;3626;42.656;23.312;2023-11-21T00:00:54;94417.56;;;3.22;100.00
7170;BME280;3626;42.656;23.312;2023-11-21T00:00:59;94416.66;;;3.23;100.00
7170;BME280;3626;42.656;23.312;2023-11-21T00:01:07;94415.72;;;3.24;100.00
7170;BME280;3626;42.656;23.312;2023-11-21T00:01:14;94425.91;;;3.24;100.00
7170;BME280;3626;42.656;23.312;2023-11-21T00:01:19;94414.91;;;3.23;100.00
7170;BME280;3626;42.656;23.312;2023-11-21T00:01:25;94420.81;;;3.24;100.00
7170;BME280;3626;42.656;23.312;2023-11-21T00:01:31;94420.81;;;3.24;100.00
7170;BME280;3626;42.656;23.312;2023-11-21T00:01:38;94413.97;;;3.24;100.00
7170;BME280;3626;42.656;23.312;2023-11-21T00:01:43;94419.06;;;3.24;100.00
7170;BME280;3626;42.656;23.312;2023-11-21T00:01:49;94416.53;;;3.24;100.00
7170;BME280;3626;42.656;23.312;2023-11-21T00:01:55;94415.72;;;3.24;100.00
7170;BME280;3626;42.656;23.312;2023-11-21T00:02:02;94423.38;;;3.24;100.00
7170;BME280;3626;42.656;23.312;2023-11-21T00:02:09;94418.25;;;3.24;100.00
7170;BME280;3626;42.656;23.312;2023-11-21T00:02:15;94420.81;;;3.24;100.00
7170;BME280;3626;42.656;23.312;2023-11-21T00:02:21;94410.72;;;3.22;100.00
7170;BME280;3626;42.656;23.312;2023-11-21T00:02:27;94412.34;;;3.23;100.00
7170;BME280;3626;42.656;23.312;2023-11-21T00:02:33;94414.09;;;3.23;100.00
7170;BME280;3626;42.656;23.312;2023-11-21T00:02:40;94416.66;;;3.23;100.00
7170;BME280;3626;42.656;23.312;2023-11-21T00:02:46;94414.09;;;3.23;100.00
7170;BME280;3626;42.656;23.312;2023-11-21T00:02:52;94414.91;;;3.23;100.00
7170;BME280;3626;42.656;23.312;2023-11-21T00:02:57;94417.31;;;3.25;100.00
7170;BME280;3626;42.656;23.312;2023-11-21T00:03:03;94422.44;;;3.25;100.00
7170;BME280;3626;42.656;23.312;2023-11-21T00:03:09;94420.69;;;3.25;100.00
7170;BME280;3626;42.656;23.312;2023-11-21T00:03:18;94420.69;;;3.25;100.00
7170;BME280;3626;42.656;23.312;2023-11-21T00:03:24;94424.03;;;3.26;100.00
7170;BME280;3626;42.656;23.312;2023-11-21T00:03:30;94413.84;;;3.26;100.00
7170;BME280;3626;42.656;23.312;2023-11-21T00:03:36;94418.94;;;3.26;100.00
7170;BME280;3626;42.656;23.312;2023-11-21T00:03:41;94419.72;;;3.26;100.00
7170;BME280;3626;42.656;23.312;2023-11-21T00:03:47;94421.47;;;3.26;100.00
7170;BME280;3626;42.656;23.312;2023-11-21T00:03:53;94420.53;;;3.27;100.00
7170;BME280;3626;42.656;23.312;2023-11-21T00:04:00;94419.72;;;3.26;100.00
7170;BME280;3626;42.656;23.312;2023-11-21T00:04:07;94421.38;;;3.28;100.00
7170;BME280;3626;42.656;23.312;2023-11-21T00:04:12;94430.75;;;3.27;100.00
7170;BME280;3626;42.656;23.312;2023-11-21T00:04:18;94420.53;;;3.27;100.00
7170;BME280;3626;42.656;23.312;2023-11-21T00:04:25;94418.00;;;3.27;100.00
7170;BME280;3626;42.656;23.312;2023-11-21T00:04:32;94418.81;;;3.28;100.00
7170;BME280;3626;42.656;23.312;2023-11-21T00:04:38;94420.53;;;3.27;100.00
7170;BME280;3626;42.656;23.312;2023-11-21T00:04:43;94420.53;;;3.27;100.00
7170;BME280;3626;42.656;23.312;2023-11-21T00:04:50;94416.38;;;3.26;100.00
7170;BME280;3626;42.656;23.312;2023-11-21T00:04:55;94416.38;;;3.26;100.00
7170;BME280;3626;42.656;23.312;2023-11-21T00:05:01;94418.00;;;3.27;100.00
7170;BME280;3626;42.656;23.312;2023-11-21T00:05:09;94424.72;;;3.28;100.00
7170;BME280;3626;42.656;23.312;2023-11-21T00:05:16;94416.28;;;3.28;100.00
7170;BME280;3626;42.656;23.312;2023-11-21T00:05:21;94419.63;;;3.28;100.00
7170;BME280;3626;42.656;23.312;2023-11-21T00:05:28;94416.28;;;3.28;100.00
7170;BME280;3626;42.656;23.312;2023-11-21T00:05:34;94415.34;;;3.29;100.00
7170;BME280;3626;42.656;23.312;2023-11-21T00:05:40;94420.44;;;3.29;100.00
7170;BME280;3626;42.656;23.312;2023-11-21T00:05:46;94416.13;;;3.29;100.00
7170;BME280;3626;42.656;23.312;2023-11-21T00:05:53;94422.19;;;3.28;100.00
7170;BME280;3626;42.656;23.312;2023-11-21T00:06:00;94415.34;;;3.29;100.00
7170;BME280;3626;42.656;23.312;2023-11-21T00:06:06;94418.69;;;3.29;100.00
7170;BME280;3626;42.656;23.312;2023-11-21T00:06:14;94418.69;;;3.29;100.00
7170;BME280;3626;42.656;23.312;2023-11-21T00:06:20;94416.13;;;3.29;100.00
7170;BME280;3626;42.656;23.312;2023-11-21T00:06:25;94424.59;;;3.30;100.00
7170;BME280;3626;42.656;23.312;2023-11-21T00:06:31;94420.28;;;3.30;100.00
7170;BME280;3626;42.656;23.312;2023-11-21T00:06:37;94416.00;;;3.31;100.00
7170;BME280;3626;42.656;23.312;2023-11-21T00:06:43;94415.19;;;3.30;100.00
7170;BME280;3626;42.656;23.312;2023-11-21T00:06:52;94420.28;;;3.30;100.00
7170;BME280;3626;42.656;23.312;2023-11-21T00:06:57;94416.81;;;3.31;100.00
7170;BME280;3626;42.656;23.312;2023-11-21T00:07:03;94419.34;;;3.31;100.00
7170;BME280;3626;42.656;23.312;2023-11-21T00:07:11;94415.09;;;3.32;100.00
7170;BME280;3626;42.656;23.312;2023-11-21T00:07:17;94418.56;;;3.31;100.00
7170;BME280;3626;42.656;23.312;2023-11-21T00:07:22;94417.63;;;3.32;100.00
7170;BME280;3626;42.656;23.312;2023-11-21T00:07:28;94419.25;;;3.33;100.00
7170;BME280;3626;42.656;23.312;2023-11-21T00:07:34;94414.16;;;3.33;100.00
7170;BME280;3626;42.656;23.312;2023-11-21T00:07:40;94419.25;;;3.33;100.00
7170;BME280;3626;42.656;23.312;2023-11-21T00:07:46;94416.56;;;3.34;100.00
7170;BME280;3626;42.656;23.312;2023-11-21T00:07:52;94419.91;;;3.35;100.00
7170;BME280;3626;42.656;23.312;2023-11-21T00:07:57;94421.56;;;3.36;100.00
7170;BME280;3626;42.656;23.312;2023-11-21T00:08:04;94424.91;;;3.36;100.00
7170;BME280;3626;42.656;23.312;2023-11-21T00:08:10;94419.81;;;3.36;100.00
7170;BME280;3626;42.656;23.312;2023-11-21T00:08:17;94414.69;;;3.36;100.00
7170;BME280;3626;42.656;23.312;2023-11-21T00:08:23;94419.81;;;3.36;100.00
7170;BME280;3626;42.656;23.312;2023-11-21T00:08:28;94416.31;;;3.37;100.00
7170;BME280;3626;42.656;23.312;2023-11-21T00:08:35;94421.41;;;3.37;100.00
7170;BME280;3626;42.656;23.312;2023-11-21T00:08:41;94418.06;;;3.37;100.00
7170;BME280;3626;42.656;23.312;2023-11-21T00:08:46;94415.50;;;3.37;100.00
7170;BME280;3626;42.656;23.312;2023-11-21T00:08:52;94418.84;;;3.37;100.00
7170;BME280;3626;42.656;23.312;2023-11-21T00:08:58;94422.22;;;3.38;100.00
7170;BME280;3626;42.656;23.312;2023-11-21T00:09:04;94420.47;;;3.38;100.00
7170;BME280;3626;42.656;23.312;2023-11-21T00:09:10;94420.47;;;3.38;100.00
7170;BME280;3626;42.656;23.312;2023-11-21T00:09:18;94419.53;;;3.39;100.00
7170;BME280;3626;42.656;23.312;2023-11-21T00:09:25;94418.72;;;3.39;100.00
7170;BME280;3626;42.656;23.312;2023-11-21T00:09:30;94419.53;;;3.39;100.00
7170;BME280;3626;42.656;23.312;2023-11-21T00:09:36;94413.63;;;3.39;100.00
7170;BME280;3626;42.656;23.312;2023-11-21T00:09:43;94417.78;;;3.40;100.00
7170;BME280;3626;42.656;23.312;2023-11-21T00:09:49;94419.53;;;3.39;100.00
7170;BME280;3626;42.656;23.312;2023-11-21T00:09:55;94420.34;;;3.40;100.00
7170;BME280;3626;42.656;23.312;2023-11-21T00:10:01;94411.88;;;3.39;100.00
7170;BME280;3626;42.656;23.312;2023-11-21T00:10:09;94421.97;;;3.41;100.00
7170;BME280;3626;42.656;23.312;2023-11-21T00:10:15;94426.25;;;3.40;100.00
7170;BME280;3626;42.656;23.312;2023-11-21T00:10:21;94421.16;;;3.40;100.00
7170;BME280;3626;42.656;23.312;2023-11-21T00:10:27;94419.41;;;3.41;100.00
7170;BME280;3626;42.656;23.312;2023-11-21T00:10:34;94420.22;;;3.41;100.00
7170;BME280;3626;42.656;23.312;2023-11-21T00:10:40;94421.03;;;3.42;100.00
7170;BME280;3626;42.656;23.312;2023-11-21T00:10:45;94421.84;;;3.42;100.00
7170;BME280;3626;42.656;23.312;2023-11-21T00:10:51;94414.19;;;3.42;100.00
7170;BME280;3626;42.656;23.312;2023-11-21T00:10:57;94425.19;;;3.43;100.00
7170;BME280;3626;42.656;23.312;2023-11-21T00:11:05;94418.34;;;3.43;100.00
7170;BME280;3626;42.656;23.312;2023-11-21T00:11:11;94418.34;;;3.43;100.00
7170;BME280;3626;42.656;23.312;2023-11-21T00:11:17;94422.63;;;3.43;100.00
7170;BME280;3626;42.656;23.312;2023-11-21T00:11:22;94426.00;;;3.43;100.00
7170;BME280;3626;42.656;23.312;2023-11-21T00:11:29;94418.34;;;3.43;100.00
7170;BME280;3626;42.656;23.312;2023-11-21T00:11:36;94426.00;;;3.43;100.00
7170;BME280;3626;42.656;23.312;2023-11-21T00:11:43;94417.44;;;3.44;100.00
7170;BME280;3626;42.656;23.312;2023-11-21T00:11:49;94422.53;;;3.44;100.00
7170;BME280;3626;42.656;23.312;2023-11-21T00:11:55;94419.97;;;3.44;100.00
7170;BME280;3626;42.656;23.312;2023-11-21T00:12:01;94420.78;;;3.45;100.00
7170;BME280;3626;42.656;23.312;2023-11-21T00:12:08;94420.78;;;3.45;100.00
7170;BME280;3626;42.656;23.312;2023-11-21T00:12:15;94419.13;;;3.44;100.00
7170;BME280;3626;42.656;23.312;2023-11-21T00:12:21;94417.44;;;3.44;100.00
7170;BME280;3626;42.656;23.312;2023-11-21T00:12:26;94414.03;;;3.44;100.00
7170;BME280;3626;42.656;23.312;2023-11-21T00:12:35;94419.03;;;3.45;100.00
7170;BME280;3626;42.656;23.312;2023-11-21T00:12:41;94419.03;;;3.45;100.00
7170;BME280;3626;42.656;23.312;2023-11-21T00:12:47;94421.59;;;3.45;100.00
7170;BME280;3626;42.656;23.312;2023-11-21T00:12:53;94420.78;;;3.45;100.00
7170;BME280;3626;42.656;23.312;2023-11-21T00:13:00;94414.97;;;3.43;100.00
7170;BME280;3626;42.656;23.312;2023-11-21T00:13:08;94419.13;;;3.44;100.00
7170;BME280;3626;42.656;23.312;2023-11-21T00:13:14;94415.78;;;3.43;100.00
7170;BME280;3626;42.656;23.312;2023-11-21T00:13:19;94416.59;;;3.44;100.00
7170;BME280;3626;42.656;23.312;2023-11-21T00:13:26;94423.44;;;3.43;100.00
7170;BME280;3626;42.656;23.312;2023-11-21T00:13:32;94421.69;;;3.44;100.00
7170;BME280;3626;42.656;23.312;2023-11-21T00:13:39;94419.97;;;3.44;100.00
7170;BME280;3626;42.656;23.312;2023-11-21T00:13:44;94420.88;;;3.43;100.00
7170;BME280;3626;42.656;23.312;2023-11-21T00:13:51;94421.69;;;3.44;100.00
7170;BME280;3626;42.656;23.312;2023-11-21T00:13:56;94416.72;;;3.42;100.00
7170;BME280;3626;42.656;23.312;2023-11-21T00:14:03;94419.28;;;3.42;100.00
7170;BME280;3626;42.656;23.312;2023-11-21T00:14:09;94422.78;;;3.41;100.00
7170;BME280;3626;42.656;23.312;2023-11-21T00:14:15;94418.47;;;3.42;100.00
7170;BME280;3626;42.656;23.312;2023-11-21T00:14:21;94425.19;;;3.43;100.00
7170;BME280;3626;42.656;23.312;2023-11-21T00:14:27;94419.28;;;3.42;100.00
7170;BME280;3626;42.656;23.312;2023-11-21T00:14:32;94421.84;;;3.42;100.00
7170;BME280;3626;42.656;23.312;2023-11-21T00:14:38;94420.88;;;3.43;100.00
7170;BME280;3626;42.656;23.312;2023-11-21T00:14:44;94422.63;;;3.43;100.00
7170;BME280;3626;42.656;23.312;2023-11-21T00:14:50;94419.28;;;3.42;100.00
7170;BME280;3626;42.656;23.312;2023-11-21T00:14:55;94414.97;;;3.43;100.00
7170;BME280;3626;42.656;23.312;2023-11-21T00:15:01;94420.88;;;3.43;100.00
7170;BME280;3626;42.656;23.312;2023-11-21T00:15:09;94419.28;;;3.42;100.00
7170;BME280;3626;42.656;23.312;2023-11-21T00:15:16;94423.44;;;3.43;100.00
7170;BME280;3626;42.656;23.312;2023-11-21T00:15:22;94423.44;;;3.43;100.00
7170;BME280;3626;42.656;23.312;2023-11-21T00:15:27;94420.88;;;3.43;100.00
7170;BME280;3626;42.656;23.312;2023-11-21T00:15:33;94420.09;;;3.43;100.00
7170;BME280;3626;42.656;23.312;2023-11-21T00:15:39;94420.88;;;3.43;100.00
7170;BME280;3626;42.656;23.312;2023-11-21T00:15:45;94420.88;;;3.43;100.00
7170;BME280;3626;42.656;23.312;2023-11-21T00:15:51;94424.38;;;3.42;100.00
7170;BME280;3626;42.656;23.312;2023-11-21T00:15:57;94423.56;;;3.42;100.00
7170;BME280;3626;42.656;23.312;2023-11-21T00:16:03;94423.56;;;3.42;100.00
7170;BME280;3626;42.656;23.312;2023-11-21T00:16:09;94425.31;;;3.41;100.00
7170;BME280;3626;42.656;23.312;2023-11-21T00:16:15;94422.63;;;3.43;100.00
7170;BME280;3626;42.656;23.312;2023-11-21T00:16:21;94415.94;;;3.42;100.00
7170;BME280;3626;42.656;23.312;2023-11-21T00:16:28;94425.31;;;3.41;100.00
7170;BME280;3626;42.656;23.312;2023-11-21T00:16:33;94417.66;;;3.41;100.00
7170;BME280;3626;42.656;23.312;2023-11-21T00:16:40;94417.66;;;3.41;100.00
7170;BME280;3626;42.656;23.312;2023-11-21T00:16:46;94423.56;;;3.42;100.00
7170;BME280;3626;42.656;23.312;2023-11-21T00:16:52;94422.78;;;3.41;100.00
7170;BME280;3626;42.656;23.312;2023-11-21T00:16:59;94426.13;;;3.42;100.00
7170;BME280;3626;42.656;23.312;2023-11-21T00:17:04;94426.94;;;3.42;100.00
7170;BME280;3626;42.656;23.312;2023-11-21T00:17:10;94418.47;;;3.42;100.00
7170;BME280;3626;42.656;23.312;2023-11-21T00:17:16;94421.03;;;3.42;100.00
7170;BME280;3626;42.656;23.312;2023-11-21T00:17:22;94428.53;;;3.43;100.00
7170;BME280;3626;42.656;23.312;2023-11-21T00:17:27;94429.47;;;3.42;100.00
7170;BME280;3626;42.656;23.312;2023-11-21T00:17:34;94423.56;;;3.42;100.00
7170;BME280;3626;42.656;23.312;2023-11-21T00:17:40;94426.94;;;3.42;100.00
7170;BME280;3626;42.656;23.312;2023-11-21T00:17:46;94430.28;;;3.43;100.00
7170;BME280;3626;42.656;23.312;2023-11-21T00:17:52;94427.75;;;3.43;100.00
7170;BME280;3626;42.656;23.312;2023-11-21T00:17:59;94423.56;;;3.42;100.00
7170;BME280;3626;42.656;23.312;2023-11-21T00:18:05;94424.38;;;3.42;100.00
7170;BME280;3626;42.656;23.312;2023-11-21T00:18:11;94426.94;;;3.42;100.00
7170;BME280;3626;42.656;23.312;2023-11-21T00:18:18;94420.09;;;3.43;100.00
7170;BME280;3626;42.656;23.312;2023-11-21T00:18:24;94426.94;;;3.42;100.00
7170;BME280;3626;42.656;23.312;2023-11-21T00:18:30;94425.19;;;3.43;100.00
7170;BME280;3626;42.656;23.312;2023-11-21T00:18:36;94419.28;;;3.42;100.00
7170;BME280;3626;42.656;23.312;2023-11-21T00:18:41;94419.28;;;3.42;100.00
7170;BME280;3626;42.656;23.312;2023-11-21T00:18:48;94423.44;;;3.43;100.00
7170;BME280;3626;42.656;23.312;2023-11-21T00:18:53;94424.25;;;3.44;100.00
7170;BME280;3626;42.656;23.312;2023-11-21T00:18:59;94425.19;;;3.43;100.00
7170;BME280;3626;42.656;23.312;2023-11-21T00:19:05;94426.00;;;3.43;100.00
7170;BME280;3626;42.656;23.312;2023-11-21T00:19:11;94421.84;;;3.42;100.00
7170;BME280;3626;42.656;23.312;2023-11-21T00:19:17;94426.13;;;3.42;100.00
7170;BME280;3626;42.656;23.312;2023-11-21T00:19:23;94426.25;;;3.40;100.00
7170;BME280;3626;42.656;23.312;2023-11-21T00:19:29;94423.03;;;3.38;100.00
7170;BME280;3626;42.656;23.312;2023-11-21T00:19:35;94428.25;;;3.37;100.00
7170;BME280;3626;42.656;23.312;2023-11-21T00:19:41;94425.72;;;3.37;100.00
7170;BME280;3626;42.656;23.312;2023-11-21T00:19:48;94419.91;;;3.35;100.00
7170;BME280;3626;42.656;23.312;2023-11-21T00:19:53;94424.91;;;3.36;100.00
7170;BME280;3626;42.656;23.312;2023-11-21T00:19:59;94424.91;;;3.36;100.00
7170;BME280;3626;42.656;23.312;2023-11-21T00:20:07;94423.25;;;3.35;100.00
7170;BME280;3626;42.656;23.312;2023-11-21T00:20:13;94427.56;;;3.35;100.00
7170;BME280;3626;42.656;23.312;2023-11-21T00:20:19;94419.91;;;3.35;100.00
7170;BME280;3626;42.656;23.312;2023-11-21T00:20:25;94427.69;;;3.33;100.00
7170;BME280;3626;42.656;23.312;2023-11-21T00:20:30;94425.16;;;3.33;100.00
7170;BME280;3626;42.656;23.312;2023-11-21T00:20:36;94423.53;;;3.32;100.00
7170;BME280;3626;42.656;23.312;2023-11-21T00:20:42;94422.59;;;3.33;100.00
7170;BME280;3626;42.656;23.312;2023-11-21T00:20:48;94427.69;;;3.33;100.00
7170;BME280;3626;42.656;23.312;2023-11-21T00:20:53;94425.16;;;3.33;100.00
7170;BME280;3626;42.656;23.312;2023-11-21T00:20:59;94424.34;;;3.33;100.00
7170;BME280;3626;42.656;23.312;2023-11-21T00:21:05;94429.31;;;3.34;100.00
7170;BME280;3626;42.656;23.312;2023-11-21T00:21:11;94426.75;;;3.34;100.00
7170;BME280;3626;42.656;23.312;2023-11-21T00:21:18;94428.50;;;3.34;100.00
7170;BME280;3626;42.656;23.312;2023-11-21T00:21:23;94424.22;;;3.34;100.00
7170;BME280;3626;42.656;23.312;2023-11-21T00:21:29;94420.06;;;3.33;100.00
7170;BME280;3626;42.656;23.312;2023-11-21T00:21:35;94423.41;;;3.34;100.00
7170;BME280;3626;42.656;23.312;2023-11-21T00:21:40;94423.41;;;3.34;100.00
7170;BME280;3626;42.656;23.312;2023-11-21T00:21:49;94422.47;;;3.35;100.00
7170;BME280;3626;42.656;23.312;2023-11-21T00:21:55;94417.34;;;3.35;100.00
7170;BME280;3626;42.656;23.312;2023-11-21T00:22:03;94418.16;;;3.35;100.00
7170;BME280;3626;42.656;23.312;2023-11-21T00:22:09;94422.47;;;3.35;100.00
7170;BME280;3626;42.656;23.312;2023-11-21T00:22:14;94428.38;;;3.35;100.00
7170;BME280;3626;42.656;23.312;2023-11-21T00:22:21;94425.00;;;3.35;100.00
7170;BME280;3626;42.656;23.312;2023-11-21T00:22:27;94424.09;;;3.36;100.00
7170;BME280;3626;42.656;23.312;2023-11-21T00:22:33;94424.09;;;3.36;100.00
7170;BME280;3626;42.656;23.312;2023-11-21T00:22:38;94423.25;;;3.35;100.00
7170;BME280;3626;42.656;23.312;2023-11-21T00:22:45;94420.72;;;3.35;100.00
7170;BME280;3626;42.656;23.312;2023-11-21T00:22:52;94418.16;;;3.35;100.00
7170;BME280;3626;42.656;23.312;2023-11-21T00:22:57;94419.00;;;3.36;100.00
7170;BME280;3626;42.656;23.312;2023-11-21T00:23:04;94415.63;;;3.35;100.00
7170;BME280;3626;42.656;23.312;2023-11-21T00:23:10;94413.91;;;3.36;100.00
7170;BME280;3626;42.656;23.312;2023-11-21T00:23:16;94414.69;;;3.36;100.00
7170;BME280;3626;42.656;23.312;2023-11-21T00:23:22;94422.34;;;3.36;100.00
7170;BME280;3626;42.656;23.312;2023-11-21T00:23:27;94417.25;;;3.36;100.00
7170;BME280;3626;42.656;23.312;2023-11-21T00:23:34;94416.44;;;3.36;100.00
7170;BME280;3626;42.656;23.312;2023-11-21T00:23:40;94418.06;;;3.37;100.00
7170;BME280;3626;42.656;23.312;2023-11-21T00:23:46;94419.81;;;3.36;100.00
7170;BME280;3626;42.656;23.312;2023-11-21T00:23:51;94423.16;;;3.37;100.00
7170;BME280;3626;42.656;23.312;2023-11-21T00:23:57;94420.59;;;3.37;100.00
7170;BME280;3626;42.656;23.312;2023-11-21T00:24:03;94420.59;;;3.37;100.00
7170;BME280;3626;42.656;23.312;2023-11-21T00:24:09;94418.06;;;3.37;100.00
7170;BME280;3626;42.656;23.312;2023-11-21T00:24:14;94417.13;;;3.38;100.00
7170;BME280;3626;42.656;23.312;2023-11-21T00:24:20;94416.31;;;3.37;100.00
7170;BME280;3626;42.656;23.312;2023-11-21T00:24:26;94423.03;;;3.38;100.00
7170;BME280;3626;42.656;23.312;2023-11-21T00:24:32;94416.31;;;3.37;100.00
7170;BME280;3626;42.656;23.312;2023-11-21T00:24:37;94413.75;;;3.37;100.00
7170;BME280;3626;42.656;23.312;2023-11-21T00:24:43;94417.13;;;3.38;100.00
7170;BME280;3626;42.656;23.312;2023-11-21T00:24:49;94416.31;;;3.37;100.00
7170;BME280;3626;42.656;23.312;2023-11-21T00:24:55;94412.81;;;3.38;100.00
7170;BME280;3626;42.656;23.312;2023-11-21T00:25:00;94411.06;;;3.39;100.00
7170;BME280;3626;42.656;23.312;2023-11-21T00:25:07;94414.44;;;3.39;100.00
7170;BME280;3626;42.656;23.312;2023-11-21T00:25:14;94414.44;;;3.39;100.00
7170;BME280;3626;42.656;23.312;2023-11-21T00:25:22;94414.44;;;3.39;100.00
7170;BME280;3626;42.656;23.312;2023-11-21T00:25:28;94413.63;;;3.39;100.00
7170;BME280;3626;42.656;23.312;2023-11-21T00:25:34;94414.44;;;3.39;100.00
7170;BME280;3626;42.656;23.312;2023-11-21T00:25:39;94415.22;;;3.40;100.00
7170;BME280;3626;42.656;23.312;2023-11-21T00:25:45;94410.97;;;3.40;100.00
7170;BME280;3626;42.656;23.312;2023-11-21T00:25:51;94415.13;;;3.41;100.00
7170;BME280;3626;42.656;23.312;2023-11-21T00:25:57;94412.56;;;3.41;100.00
7170;BME280;3626;42.656;23.312;2023-11-21T00:26:03;94411.75;;;3.41;100.00
7170;BME280;3626;42.656;23.312;2023-11-21T00:26:09;94414.19;;;3.42;100.00
7170;BME280;3626;42.656;23.312;2023-11-21T00:26:15;94413.38;;;3.42;100.00
7170;BME280;3626;42.656;23.312;2023-11-21T00:26:21;94411.63;;;3.42;100.00
7170;BME280;3626;42.656;23.312;2023-11-21T00:26:26;94415.78;;;3.43;100.00
7170;BME280;3626;42.656;23.312;2023-11-21T00:26:32;94412.44;;;3.43;100.00
7170;BME280;3626;42.656;23.312;2023-11-21T00:26:42;94414.03;;;3.44;100.00
7170;BME280;3626;42.656;23.312;2023-11-21T00:26:47;94416.59;;;3.44;100.00
7170;BME280;3626;42.656;23.312;2023-11-21T00:26:53;94419.03;;;3.45;100.00
7170;BME280;3626;42.656;23.312;2023-11-21T00:26:59;94414.72;;;3.46;100.00
7170;BME280;3626;42.656;23.312;2023-11-21T00:27:05;94414.72;;;3.46;100.00
7170;BME280;3626;42.656;23.312;2023-11-21T00:27:11;94417.28;;;3.46;100.00
7170;BME280;3626;42.656;23.312;2023-11-21T00:27:17;94417.28;;;3.46;100.00
7170;BME280;3626;42.656;23.312;2023-11-21T00:27:22;94410.44;;;3.46;100.00
7170;BME280;3626;42.656;23.312;2023-11-21T00:27:28;94416.34;;;3.47;100.00
7170;BME280;3626;42.656;23.312;2023-11-21T00:27:34;94414.59;;;3.47;100.00
7170;BME280;3626;42.656;23.312;2023-11-21T00:27:41;94414.59;;;3.47;100.00
7170;BME280;3626;42.656;23.312;2023-11-21T00:27:47;94415.41;;;3.48;100.00
7170;BME280;3626;42.656;23.312;2023-11-21T00:27:53;94409.38;;;3.49;100.00
7170;BME280;3626;42.656;23.312;2023-11-21T00:27:59;94411.13;;;3.48;100.00
7170;BME280;3626;42.656;23.312;2023-11-21T00:28:07;94413.69;;;3.48;100.00
7170;BME280;3626;42.656;23.312;2023-11-21T00:28:12;94415.28;;;3.49;100.00
7170;BME280;3626;42.656;23.312;2023-11-21T00:28:18;94407.75;;;3.48;100.00
7170;BME280;3626;42.656;23.312;2023-11-21T00:28:25;94410.28;;;3.48;100.00
7170;BME280;3626;42.656;23.312;2023-11-21T00:28:31;94413.69;;;3.48;100.00
7170;BME280;3626;42.656;23.312;2023-11-21T00:28:37;94417.94;;;3.48;100.00
7170;BME280;3626;42.656;23.312;2023-11-21T00:28:43;94413.69;;;3.48;100.00
7170;BME280;3626;42.656;23.312;2023-11-21T00:28:49;94416.22;;;3.48;100.00
7170;BME280;3626;42.656;23.312;2023-11-21T00:28:55;94412.84;;;3.48;100.00
7170;BME280;3626;42.656;23.312;2023-11-21T00:29:01;94414.50;;;3.49;100.00
7170;BME280;3626;42.656;23.312;2023-11-21T00:29:07;94401.84;;;3.47;100.00
7170;BME280;3626;42.656;23.312;2023-11-21T00:29:13;94408.59;;;3.48;100.00
7170;BME280;3626;42.656;23.312;2023-11-21T00:29:19;94409.38;;;3.49;100.00
7170;BME280;3626;42.656;23.312;2023-11-21T00:29:24;94412.84;;;3.48;100.00
7170;BME280;3626;42.656;23.312;2023-11-21T00:29:31;94416.22;;;3.48;100.00
7170;BME280;3626;42.656;23.312;2023-11-21T00:29:36;94415.28;;;3.49;100.00
7170;BME280;3626;42.656;23.312;2023-11-21T00:29:43;94410.19;;;3.49;100.00
7170;BME280;3626;42.656;23.312;2023-11-21T00:29:49;94415.28;;;3.49;100.00
7170;BME280;3626;42.656;23.312;2023-11-21T00:29:55;94415.28;;;3.49;100.00
7170;BME280;3626;42.656;23.312;2023-11-21T00:30:01;94410.19;;;3.49;100.00
7170;BME280;3626;42.656;23.312;2023-11-21T00:30:07;94411.00;;;3.50;100.00
7170;BME280;3626;42.656;23.312;2023-11-21T00:30:14;94405.88;;;3.50;100.00
7170;BME280;3626;42.656;23.312;2023-11-21T00:30:20;94409.25;;;3.50;100.00
7170;BME280;3626;42.656;23.312;2023-11-21T00:30:28;94409.25;;;3.50;100.00
7170;BME280;3626;42.656;23.312;2023-11-21T00:30:34;94406.69;;;3.50;100.00
7170;BME280;3626;42.656;23.312;2023-11-21T00:30:40;94407.63;;;3.49;100.00
7170;BME280;3626;42.656;23.312;2023-11-21T00:30:45;94407.63;;;3.49;100.00
7170;BME280;3626;42.656;23.312;2023-11-21T00:30:51;94407.50;;;3.51;100.00
7170;BME280;3626;42.656;23.312;2023-11-21T00:30:57;94411.78;;;3.50;100.00
7170;BME280;3626;42.656;23.312;2023-11-21T00:31:03;94411.78;;;3.50;100.00
7170;BME280;3626;42.656;23.312;2023-11-21T00:31:10;94407.50;;;3.51;100.00
7170;BME280;3626;42.656;23.312;2023-11-21T00:31:16;94403.34;;;3.50;100.00
7170;BME280;3626;42.656;23.312;2023-11-21T00:31:22;94409.25;;;3.50;100.00
7170;BME280;3626;42.656;23.312;2023-11-21T00:31:27;94407.50;;;3.51;100.00
7170;BME280;3626;42.656;23.312;2023-11-21T00:31:33;94404.16;;;3.50;100.00
7170;BME280;3626;42.656;23.312;2023-11-21T00:31:39;94411.00;;;3.50;100.00
7170;BME280;3626;42.656;23.312;2023-11-21T00:31:45;94411.00;;;3.50;100.00
7170;BME280;3626;42.656;23.312;2023-11-21T00:31:50;94400.94;;;3.48;100.00
7170;BME280;3626;42.656;23.312;2023-11-21T00:31:56;94400.94;;;3.48;100.00
7170;BME280;3626;42.656;23.312;2023-11-21T00:32:02;94408.59;;;3.48;100.00
7170;BME280;3626;42.656;23.312;2023-11-21T00:32:08;94407.75;;;3.48;100.00
7170;BME280;3626;42.656;23.312;2023-11-21T00:32:14;94409.38;;;3.49;100.00
7170;BME280;3626;42.656;23.312;2023-11-21T00:32:20;94404.28;;;3.49;100.00
7170;BME280;3626;42.656;23.312;2023-11-21T00:32:25;94415.28;;;3.49;100.00
7170;BME280;3626;42.656;23.312;2023-11-21T00:32:31;94399.97;;;3.49;100.00
7170;BME280;3626;42.656;23.312;2023-11-21T00:32:37;94404.28;;;3.49;100.00
7170;BME280;3626;42.656;23.312;2023-11-21T00:32:43;94405.09;;;3.49;100.00
7170;BME280;3626;42.656;23.312;2023-11-21T00:32:50;94410.19;;;3.49;100.00
7170;BME280;3626;42.656;23.312;2023-11-21T00:32:56;94408.31;;;3.51;100.00
7170;BME280;3626;42.656;23.312;2023-11-21T00:33:01;94407.50;;;3.51;100.00